Time;durP1;ratioP1;P1;durP2;ratioP2;P2;SDS_P1;SDS_P2;PMS_P1;PMS_P2;Temp;Humidity;BMP_temperature;BMP_pressure;BME280_temperature;BME280_humidity;BME280_pressure;Samples;Min_cycle;Max_cycle;Signal;HPM_P1;HPM_P2
2023/09/10 00:02:15;;;;;;;10.88;6.28;;;;;;;20.93;61.49;100456.53;10296425;28;20054;-58
2023/09/10 00:07:17;;;;;;;10.25;5.93;;;;;;;20.89;61.48;100463.56;10300147;28;20509;-58
2023/09/10 00:12:18;;;;;;;9.27;6.68;;;;;;;20.87;61.68;100462.97;10295887;28;20392;-59
2023/09/10 00:17:19;;;;;;;7.38;5.80;;;;;;;20.79;61.77;100455.97;10303311;28;20042;-59
2023/09/10 00:22:21;;;;;;;7.88;5.93;;;;;;;20.70;62.13;100460.19;10303314;28;20038;-59
2023/09/10 00:27:22;;;;;;;13.73;7.07;;;;;;;20.65;62.24;100465.53;10299851;28;20103;-59
2023/09/10 00:32:24;;;;;;;10.48;6.88;;;;;;;20.52;62.74;100459.22;10296652;28;20056;-59
2023/09/10 00:37:25;;;;;;;9.80;6.43;;;;;;;20.44;62.65;100465.06;10292761;28;20050;-59
2023/09/10 00:42:27;;;;;;;10.25;7.07;;;;;;;20.33;62.85;100457.69;10287481;28;20062;-59
2023/09/10 00:47:28;;;;;;;9.30;6.07;;;;;;;20.29;63.23;100448.31;10298214;28;20050;-59
2023/09/10 00:52:30;;;;;;;8.57;6.50;;;;;;;20.23;62.92;100455.53;10294342;28;20074;-60
2023/09/10 00:57:32;;;;;;;8.95;5.32;;;;;;;20.17;63.32;100448.31;10297583;28;20070;-59
2023/09/10 01:02:34;;;;;;;8.90;5.75;;;;;;;20.15;63.25;100448.53;10299727;28;20550;-59
2023/09/10 01:07:36;;;;;;;10.15;6.15;;;;;;;20.08;63.02;100452.44;10299024;28;20073;-59
2023/09/10 01:12:59;;;;;;;8.10;5.07;;;;;;;20.01;63.35;100455.31;10295561;28;20071;-59
2023/09/10 01:18:33;;;;;;;8.10;5.88;;;;;;;19.92;63.49;100454.81;10302573;28;20050;-60
2023/09/10 01:24:04;;;;;;;7.40;5.78;;;;;;;19.90;63.76;100462.41;10283234;28;20046;-60
2023/09/10 01:29:11;;;;;;;8.55;5.55;;;;;;;19.86;63.50;100469.38;10299259;28;20122;-60
2023/09/10 01:34:15;;;;;;;9.82;5.50;;;;;;;19.79;63.75;100458.59;10303443;28;20070;-61
2023/09/10 01:39:36;;;;;;;8.30;5.88;;;;;;;19.75;63.97;100457.41;10300050;28;20050;-61
2023/09/10 01:44:39;;;;;;;10.18;5.60;;;;;;;19.72;63.91;100462.50;10307026;28;20671;-60
2023/09/10 01:49:40;;;;;;;8.55;5.50;;;;;;;19.69;64.20;100460.19;10302688;28;20038;-61
2023/09/10 01:54:42;;;;;;;7.90;5.05;;;;;;;19.65;64.04;100459.84;10301397;28;20523;-61
2023/09/10 01:59:43;;;;;;;8.80;5.75;;;;;;;19.60;64.35;100457.78;10296275;28;20054;-60
2023/09/10 02:04:45;;;;;;;9.93;6.05;;;;;;;19.54;64.42;100461.47;10309727;28;20054;-60
2023/09/10 02:09:46;;;;;;;6.97;5.57;;;;;;;19.42;64.65;100463.31;10309362;28;20051;-60
2023/09/10 02:14:48;;;;;;;11.60;6.68;;;;;;;19.32;64.61;100469.31;10306320;28;20123;-61
2023/09/10 02:19:50;;;;;;;8.27;6.05;;;;;;;19.32;64.71;100461.16;10303246;28;20154;-61
2023/09/10 02:24:52;;;;;;;11.48;5.50;;;;;;;19.34;64.91;100469.09;10311630;28;20102;-61
2023/09/10 02:29:53;;;;;;;10.75;5.78;;;;;;;19.33;64.70;100473.72;10303338;28;20047;-60
2023/09/10 02:34:55;;;;;;;9.18;5.55;;;;;;;19.20;65.31;100469.28;10309989;28;20046;-60
2023/09/10 02:39:56;;;;;;;9.30;6.60;;;;;;;19.15;65.09;100466.41;10306645;28;20043;-60
2023/09/10 02:44:58;;;;;;;9.43;6.00;;;;;;;19.16;65.27;100453.63;10310761;28;20078;-60
2023/09/10 02:50:00;;;;;;;8.02;5.82;;;;;;;19.09;65.21;100463.78;10305239;28;20530;-60
2023/09/10 02:55:01;;;;;;;8.52;6.60;;;;;;;18.99;65.35;100467.84;10305888;28;20043;-60
2023/09/10 03:00:05;;;;;;;8.90;6.30;;;;;;;19.00;65.33;100463.25;10304938;28;20773;-61
2023/09/10 03:05:07;;;;;;;9.95;5.93;;;;;;;19.01;65.32;100473.09;10306862;28;20105;-60
2023/09/10 03:10:08;;;;;;;10.48;5.88;;;;;;;18.96;65.60;100464.78;10297474;28;20050;-60
2023/09/10 03:15:10;;;;;;;8.30;6.65;;;;;;;18.96;65.43;100470.22;10304897;28;20055;-60
2023/09/10 03:20:11;;;;;;;9.82;6.35;;;;;;;18.90;65.57;100474.69;10301390;28;20051;-61
2023/09/10 03:25:13;;;;;;;9.02;6.75;;;;;;;18.78;65.75;100477.31;10300249;28;20053;-61
2023/09/10 03:30:16;;;;;;;13.70;7.20;;;;;;;18.78;65.83;100474.59;10303897;28;20054;-60
2023/09/10 03:35:17;;;;;;;12.10;6.80;;;;;;;18.74;65.82;100480.69;10305765;28;20444;-59
2023/09/10 03:40:19;;;;;;;10.18;7.60;;;;;;;18.71;65.91;100478.44;10296557;28;20050;-59
2023/09/10 03:45:21;;;;;;;13.38;7.05;;;;;;;18.65;66.12;100474.75;10295270;28;20042;-59
2023/09/10 03:50:22;;;;;;;9.68;6.85;;;;;;;18.65;66.15;100471.19;10299066;28;20043;-59
2023/09/10 03:55:23;;;;;;;9.00;6.68;;;;;;;18.65;66.12;100473.91;10296693;28;20042;-59
2023/09/10 04:00:25;;;;;;;12.57;6.90;;;;;;;18.61;66.25;100474.34;10295447;28;20102;-59
2023/09/10 04:05:27;;;;;;;11.05;6.70;;;;;;;18.62;66.12;100472.44;10298800;28;20077;-59
2023/09/10 04:10:28;;;;;;;11.50;7.05;;;;;;;18.62;66.11;100470.59;10297165;28;20061;-59
2023/09/10 04:15:30;;;;;;;9.98;5.28;;;;;;;18.60;66.13;100466.41;10296149;28;20076;-59
2023/09/10 04:20:32;;;;;;;11.40;6.60;;;;;;;18.58;65.99;100463.94;10298929;28;20404;-59
2023/09/10 04:25:33;;;;;;;10.05;6.53;;;;;;;18.59;66.19;100472.91;10299258;28;20082;-60
2023/09/10 04:30:34;;;;;;;10.05;6.45;;;;;;;18.56;66.20;100474.22;10303664;28;20059;-59
2023/09/10 04:35:36;;;;;;;8.63;6.25;;;;;;;18.55;66.23;100480.69;10299597;28;20049;-59
2023/09/10 04:40:37;;;;;;;10.95;6.80;;;;;;;18.51;66.25;100493.09;10300496;28;20046;-59
2023/09/10 04:45:39;;;;;;;9.52;6.20;;;;;;;18.50;66.28;100496.03;10294338;28;20400;-59
2023/09/10 04:50:40;;;;;;;10.27;6.65;;;;;;;18.47;66.28;100493.78;10294121;28;20101;-59
2023/09/10 04:55:42;;;;;;;10.77;7.03;;;;;;;18.43;66.26;100498.84;10295307;28;20046;-60
2023/09/10 05:00:43;;;;;;;17.33;8.52;;;;;;;18.45;66.45;100495.91;10298275;28;20051;-59
2023/09/10 05:05:45;;;;;;;9.27;7.13;;;;;;;18.50;66.48;100504.22;10299606;28;20068;-59
2023/09/10 05:10:48;;;;;;;14.73;8.23;;;;;;;18.48;66.66;100501.72;10299921;28;20389;-64
2023/09/10 05:15:51;;;;;;;16.98;7.20;;;;;;;18.48;66.63;100509.88;10297899;28;20055;-62
2023/09/10 05:20:53;;;;;;;12.82;8.40;;;;;;;18.49;66.68;100508.84;10295677;28;20684;-61
2023/09/10 05:25:54;;;;;;;14.10;7.68;;;;;;;18.50;66.60;100517.81;10297437;28;20066;-61
2023/09/10 05:30:56;;;;;;;10.48;7.45;;;;;;;18.54;66.99;100522.63;10302481;28;20133;-60
2023/09/10 05:35:58;;;;;;;11.23;8.60;;;;;;;18.63;66.95;100523.97;10301961;28;20045;-59
2023/09/10 05:41:04;;;;;;;9.38;7.13;;;;;;;18.72;66.79;100523.66;10305262;28;20468;-60
2023/09/10 05:46:05;;;;;;;12.65;8.10;;;;;;;18.78;66.89;100515.44;10302363;28;20061;-62
2023/09/10 05:51:08;;;;;;;14.73;9.25;;;;;;;18.90;67.07;100522.88;10305647;28;20213;-59
2023/09/10 05:56:09;;;;;;;10.93;8.85;;;;;;;19.00;66.83;100532.19;10307984;28;20133;-60
2023/09/10 06:01:11;;;;;;;14.30;9.52;;;;;;;19.02;67.21;100531.97;10310160;28;20053;-61
2023/09/10 06:06:12;;;;;;;15.07;8.65;;;;;;;19.11;67.59;100532.50;10306294;28;20047;-61
2023/09/10 06:11:14;;;;;;;12.88;8.43;;;;;;;19.24;67.63;100540.53;10299749;28;20513;-60
2023/09/10 06:16:15;;;;;;;14.77;8.10;;;;;;;19.36;67.55;100540.59;10294153;28;20038;-62
2023/09/10 06:21:17;;;;;;;14.73;8.15;;;;;;;19.47;67.74;100539.81;10301597;28;20078;-59
2023/09/10 06:26:18;;;;;;;12.88;8.13;;;;;;;19.64;67.37;100547.34;10285678;28;20047;-60
2023/09/10 06:31:20;;;;;;;10.60;8.15;;;;;;;19.78;67.54;100538.75;10304308;28;20042;-61
2023/09/10 06:36:21;;;;;;;12.75;8.18;;;;;;;19.90;67.29;100546.16;10303956;28;20049;-62
2023/09/10 06:41:23;;;;;;;12.18;8.43;;;;;;;20.07;67.69;100551.78;10303005;28;20130;-60
2023/09/10 06:46:24;;;;;;;15.02;9.25;;;;;;;20.20;67.38;100546.09;10305202;28;20524;-62
2023/09/10 06:51:27;;;;;;;10.77;8.23;;;;;;;20.33;67.34;100545.88;10303782;28;20074;-59
2023/09/10 06:56:29;;;;;;;13.45;7.82;;;;;;;20.52;66.82;100556.72;10303068;28;20084;-61
2023/09/10 07:01:31;;;;;;;13.10;8.57;;;;;;;20.71;66.58;100552.81;10297509;28;20066;-64
2023/09/10 07:06:32;;;;;;;11.50;7.93;;;;;;;20.86;66.57;100555.06;10305551;28;20137;-64
2023/09/10 07:11:33;;;;;;;12.10;7.57;;;;;;;21.03;66.82;100557.91;10303871;28;20046;-64
2023/09/10 07:16:35;;;;;;;11.70;8.25;;;;;;;21.24;66.59;100547.41;10299178;28;20050;-63
2023/09/10 07:21:38;;;;;;;12.77;8.30;;;;;;;21.42;66.29;100549.94;10301989;28;20047;-64
2023/09/10 07:26:40;;;;;;;13.13;8.75;;;;;;;21.57;66.13;100542.06;10305643;28;20030;-64
2023/09/10 07:31:42;;;;;;;13.43;9.30;;;;;;;21.75;65.68;100545.69;10301952;28;20062;-64
2023/09/10 07:36:44;;;;;;;14.25;8.35;;;;;;;21.95;65.64;100551.53;10303952;28;20076;-64
2023/09/10 07:41:45;;;;;;;14.40;9.75;;;;;;;22.17;65.12;100556.28;10301030;28;20068;-64
2023/09/10 07:46:47;;;;;;;12.52;8.35;;;;;;;22.34;65.07;100548.09;10286160;28;20051;-63
2023/09/10 07:51:48;;;;;;;9.45;6.97;;;;;;;22.54;64.95;100553.91;10295947;28;20068;-63
2023/09/10 07:56:50;;;;;;;17.52;8.98;;;;;;;22.71;64.66;100553.88;10298352;28;20137;-63
2023/09/10 08:01:51;;;;;;;15.80;9.30;;;;;;;22.91;64.15;100560.75;10298534;28;20058;-64
2023/09/10 08:06:53;;;;;;;13.00;7.78;;;;;;;23.01;64.27;100558.13;10282945;28;20146;-63
2023/09/10 08:11:54;;;;;;;13.48;7.72;;;;;;;23.21;63.92;100563.09;10301107;28;20058;-63
2023/09/10 08:16:56;;;;;;;13.27;7.65;;;;;;;23.41;63.43;100567.16;10299309;28;20066;-63
2023/09/10 08:21:57;;;;;;;10.90;7.88;;;;;;;23.60;62.55;100567.66;10302836;28;20088;-63
2023/09/10 08:27:03;;;;;;;8.93;7.28;;;;;;;23.80;62.03;100562.44;10300004;28;20073;-64
2023/09/10 08:32:04;;;;;;;10.80;6.60;;;;;;;24.01;62.08;100562.63;10300787;28;20112;-64
2023/09/10 08:37:09;;;;;;;8.00;6.78;;;;;;;24.18;61.43;100560.59;10298742;28;20050;-64
2023/09/10 08:42:33;;;;;;;7.93;6.70;;;;;;;24.38;61.16;100556.34;10304240;28;20049;-64
2023/09/10 08:47:39;;;;;;;9.85;6.18;;;;;;;24.62;60.13;100565.06;10296568;28;20046;-64
2023/09/10 08:52:45;;;;;;;7.38;5.68;;;;;;;24.86;59.75;100555.34;10302547;28;20070;-63
2023/09/10 08:57:47;;;;;;;10.00;6.10;;;;;;;24.95;58.68;100555.66;10297706;28;20089;-63
2023/09/10 09:02:49;;;;;;;10.30;5.45;;;;;;;25.25;57.93;100556.91;10292065;28;20142;-64
2023/09/10 09:07:57;;;;;;;8.88;4.95;;;;;;;25.34;57.03;100541.56;10300270;28;20074;-63
2023/09/10 09:13:03;;;;;;;8.68;5.40;;;;;;;25.64;56.26;100540.00;10309491;28;20401;-64
2023/09/10 09:18:09;;;;;;;5.70;5.13;;;;;;;25.82;56.28;100541.41;10294843;28;20057;-64
2023/09/10 09:23:18;;;;;;;6.55;4.85;;;;;;;26.10;55.96;100540.06;10307190;28;20109;-64
2023/09/10 09:28:20;;;;;;;6.93;5.43;;;;;;;26.33;55.35;100551.66;10299893;28;20031;-61
2023/09/10 09:33:21;;;;;;;6.60;4.30;;;;;;;26.53;54.34;100543.34;10308821;28;20042;-60
2023/09/10 09:38:23;;;;;;;7.07;5.72;;;;;;;26.65;54.22;100537.56;10309344;28;20042;-58
2023/09/10 09:43:25;;;;;;;6.07;4.95;;;;;;;26.84;53.35;100538.63;10306943;28;20054;-60
2023/09/10 09:48:26;;;;;;;6.85;4.88;;;;;;;27.14;53.14;100527.78;10305344;28;20053;-59
2023/09/10 09:53:30;;;;;;;5.05;4.47;;;;;;;27.41;52.63;100524.63;10307878;28;20046;-60
2023/09/10 09:58:33;;;;;;;9.10;4.60;;;;;;;27.64;51.89;100520.34;10302901;28;20131;-58
2023/09/10 10:03:34;;;;;;;6.57;4.55;;;;;;;27.82;51.52;100514.13;10306751;28;20039;-60
2023/09/10 10:08:37;;;;;;;5.70;4.22;;;;;;;28.03;50.79;100505.75;10299648;28;20050;-60
2023/09/10 10:13:39;;;;;;;7.57;4.70;;;;;;;28.32;50.31;100507.69;10302009;28;20138;-58
2023/09/10 10:18:41;;;;;;;7.32;4.25;;;;;;;28.49;49.40;100495.06;10301751;28;20158;-58
2023/09/10 10:23:43;;;;;;;6.57;4.88;;;;;;;28.75;48.88;100482.91;10300159;28;20046;-58
2023/09/10 10:28:49;;;;;;;8.60;4.13;;;;;;;29.11;48.73;100471.38;10303336;28;20046;-63
2023/09/10 10:34:01;;;;;;;4.68;3.78;;;;;;;29.52;48.27;100473.63;10303064;28;20496;-60
2023/09/10 10:39:09;;;;;;;10.43;3.55;;;;;;;29.94;46.51;100469.09;10307419;28;20058;-59
2023/09/10 10:44:24;;;;;;;7.97;3.85;;;;;;;30.30;45.92;100460.16;10303451;28;20057;-59
2023/09/10 10:49:28;;;;;;;7.63;3.85;;;;;;;30.91;44.85;100458.19;10307295;28;20133;-58
2023/09/10 10:54:30;;;;;;;8.05;3.92;;;;;;;31.35;43.89;100459.41;10301350;28;20054;-59
2023/09/10 10:59:33;;;;;;;7.13;3.63;;;;;;;31.60;43.31;100456.06;10298176;28;20038;-59
2023/09/10 11:04:35;;;;;;;6.47;3.78;;;;;;;31.67;42.94;100457.56;10301871;28;20064;-59
2023/09/10 11:09:36;;;;;;;7.07;3.47;;;;;;;31.97;41.89;100447.63;10304874;28;20512;-59
2023/09/10 11:14:59;;;;;;;6.78;3.22;;;;;;;31.88;41.96;100444.00;10299831;28;20357;-61
2023/09/10 11:20:03;;;;;;;8.38;3.35;;;;;;;32.28;40.90;100438.53;10297083;28;20054;-57
2023/09/10 11:25:06;;;;;;;7.22;3.70;;;;;;;32.37;41.19;100437.41;10298372;28;20054;-57
2023/09/10 11:30:18;;;;;;;9.95;3.42;;;;;;;32.34;40.73;100424.13;10300877;28;20053;-57
2023/09/10 11:35:20;;;;;;;10.32;3.00;;;;;;;32.02;39.79;100428.06;10304133;28;20120;-57
2023/09/10 11:40:22;;;;;;;6.40;3.20;;;;;;;32.30;39.33;100430.66;10301035;28;20626;-57
2023/09/10 11:45:29;;;;;;;11.07;3.83;;;;;;;32.28;39.51;100430.16;10299147;28;20042;-57
2023/09/10 11:50:33;;;;;;;11.18;3.65;;;;;;;32.43;39.21;100424.19;10302811;28;20057;-57
2023/09/10 11:55:34;;;;;;;10.32;2.80;;;;;;;32.61;37.96;100427.88;10299602;28;20492;-58
2023/09/10 12:00:36;;;;;;;9.65;3.45;;;;;;;32.52;37.80;100425.00;10300410;28;20058;-62
2023/09/10 12:05:37;;;;;;;8.15;3.25;;;;;;;32.70;37.10;100425.09;10299401;28;20061;-58
2023/09/10 12:10:40;;;;;;;8.23;2.92;;;;;;;32.88;36.53;100409.25;10297582;28;20133;-58
2023/09/10 12:15:43;;;;;;;9.38;3.15;;;;;;;33.06;36.21;100404.53;10297928;28;20054;-59
2023/09/10 12:20:45;;;;;;;13.25;2.50;;;;;;;33.14;36.11;100401.78;10294899;28;20129;-57
2023/09/10 12:26:12;;;;;;;13.38;3.63;;;;;;;33.15;35.76;100402.59;10300629;28;20046;-58
2023/09/10 12:31:14;;;;;;;13.43;2.70;;;;;;;33.58;34.00;100397.00;10297440;28;20617;-60
2023/09/10 12:36:16;;;;;;;14.90;3.17;;;;;;;33.54;33.58;100398.81;10298059;28;20046;-59
2023/09/10 12:41:17;;;;;;;13.10;2.95;;;;;;;33.81;33.86;100390.41;10298862;28;20057;-60
2023/09/10 12:46:19;;;;;;;13.43;3.60;;;;;;;33.92;33.26;100383.34;10295835;28;20053;-60
2023/09/10 12:51:20;;;;;;;9.10;3.40;;;;;;;34.01;33.96;100383.31;10305448;28;20385;-59
2023/09/10 12:56:22;;;;;;;11.23;3.75;;;;;;;33.99;34.15;100389.25;10297778;28;20046;-58
2023/09/10 13:01:25;;;;;;;13.15;2.85;;;;;;;34.04;33.40;100382.66;10299948;28;20053;-57
2023/09/10 13:06:27;;;;;;;14.27;3.13;;;;;;;34.17;32.99;100376.06;10303634;28;20106;-58
2023/09/10 13:11:28;;;;;;;14.25;2.80;;;;;;;34.32;32.23;100371.88;10301219;28;20507;-58
2023/09/10 13:16:30;;;;;;;17.42;3.22;;;;;;;34.38;31.54;100370.53;10293580;28;20050;-58
2023/09/10 13:21:31;;;;;;;16.52;2.92;;;;;;;34.53;31.53;100372.75;10302947;28;20043;-58
2023/09/10 13:26:33;;;;;;;14.20;2.15;;;;;;;34.53;30.87;100366.34;10298515;28;20042;-58
2023/09/10 13:31:34;;;;;;;15.88;2.40;;;;;;;34.69;30.39;100361.03;10287781;28;20072;-58
2023/09/10 13:36:37;;;;;;;10.30;2.72;;;;;;;34.91;30.64;100348.69;10298424;28;20586;-57
2023/09/10 13:41:38;;;;;;;11.85;2.40;;;;;;;35.10;30.24;100351.03;10298412;28;20065;-58
2023/09/10 13:46:40;;;;;;;13.35;3.53;;;;;;;35.27;30.72;100347.28;10291311;28;20065;-58
2023/09/10 13:51:42;;;;;;;13.85;2.45;;;;;;;35.46;29.75;100346.78;10303772;28;20113;-59
2023/09/10 13:56:44;;;;;;;13.77;2.75;;;;;;;35.50;30.41;100344.91;10301989;28;20034;-58
2023/09/10 14:01:46;;;;;;;14.18;2.35;;;;;;;35.89;29.91;100343.50;10306037;28;20067;-58
2023/09/10 14:06:50;;;;;;;18.50;2.50;;;;;;;36.25;29.59;100338.31;10307120;28;20130;-60
2023/09/10 14:11:51;;;;;;;11.40;2.40;;;;;;;36.77;28.90;100331.97;10299087;28;20054;-57
2023/09/10 14:16:53;;;;;;;10.30;2.38;;;;;;;37.34;27.95;100335.63;10301989;28;20058;-60
2023/09/10 14:21:54;;;;;;;14.85;2.00;;;;;;;38.08;26.75;100335.22;10304859;28;20321;-58
2023/09/10 14:26:56;;;;;;;13.75;1.58;;;;;;;39.27;25.60;100324.63;10302497;28;20054;-58
2023/09/10 14:31:58;;;;;;;11.20;2.08;;;;;;;40.87;23.75;100324.91;10301577;28;20122;-58
2023/09/10 14:37:00;;;;;;;15.25;2.65;;;;;;;41.44;22.68;100321.94;10301815;28;20070;-58
2023/09/10 14:42:01;;;;;;;8.40;2.25;;;;;;;41.96;22.90;100308.72;10303644;28;20039;-60
2023/09/10 14:47:03;;;;;;;11.25;2.50;;;;;;;42.38;22.17;100307.44;10299289;28;20073;-59
2023/09/10 14:52:05;;;;;;;11.07;2.67;;;;;;;42.46;21.40;100304.66;10307290;28;20141;-60
2023/09/10 14:57:06;;;;;;;12.98;2.40;;;;;;;42.22;21.93;100308.94;10298188;28;20054;-60
2023/09/10 15:02:08;;;;;;;13.15;2.05;;;;;;;41.84;22.02;100299.75;10293705;28;20077;-60
2023/09/10 15:07:10;;;;;;;13.93;2.10;;;;;;;40.24;23.28;100301.81;10299646;28;20101;-60
2023/09/10 15:12:11;;;;;;;10.95;1.83;;;;;;;39.55;23.83;100290.63;10299149;28;20046;-59
2023/09/10 15:17:12;;;;;;;7.07;2.00;;;;;;;39.04;24.06;100290.84;10302030;28;20057;-58
2023/09/10 15:22:14;;;;;;;11.00;2.47;;;;;;;38.67;24.61;100292.06;10295877;28;20042;-59
2023/09/10 15:27:15;;;;;;;12.45;1.75;;;;;;;38.23;24.67;100283.84;10297319;28;20133;-59
2023/09/10 15:32:17;;;;;;;17.08;2.28;;;;;;;37.89;24.91;100285.41;10304281;28;20054;-58
2023/09/10 15:37:18;;;;;;;9.63;1.50;;;;;;;37.72;24.93;100280.97;10298107;28;20102;-59
2023/09/10 15:42:20;;;;;;;6.72;1.65;;;;;;;37.36;25.44;100285.59;10282343;28;20522;-59
2023/09/10 15:47:21;;;;;;;6.50;1.15;;;;;;;37.22;25.67;100277.63;10304292;28;20046;-59
2023/09/10 15:52:23;;;;;;;12.10;2.67;;;;;;;37.17;25.61;100275.09;10302500;28;20446;-59
2023/09/10 15:57:27;;;;;;;16.58;2.42;;;;;;;37.18;25.30;100271.09;10299590;28;20034;-58
2023/09/10 16:02:31;;;;;;;15.02;1.80;;;;;;;37.18;25.59;100265.50;10295595;28;20039;-59
2023/09/10 16:07:34;;;;;;;12.85;2.63;;;;;;;37.04;26.05;100260.28;10301659;28;20079;-59
2023/09/10 16:12:35;;;;;;;7.45;1.85;;;;;;;36.97;25.89;100254.50;10305380;28;20085;-59
2023/09/10 16:17:37;;;;;;;12.82;2.10;;;;;;;36.91;25.77;100262.34;10303598;28;20046;-58
2023/09/10 16:22:38;;;;;;;15.45;1.90;;;;;;;36.84;26.23;100259.31;10297384;28;20038;-58
2023/09/10 16:27:40;;;;;;;12.07;1.77;;;;;;;36.79;26.04;100261.56;10295525;28;20046;-58
2023/09/10 16:32:41;;;;;;;12.77;2.08;;;;;;;36.67;26.56;100259.63;10289403;28;20522;-59
2023/09/10 16:37:43;;;;;;;10.23;2.05;;;;;;;36.55;26.95;100257.63;10293991;28;20034;-57
2023/09/10 16:42:44;;;;;;;17.05;2.42;;;;;;;36.39;26.72;100265.97;10297808;28;20085;-57
2023/09/10 16:47:46;;;;;;;14.63;2.35;;;;;;;36.31;26.92;100281.72;10294540;28;20495;-57
2023/09/10 16:52:47;;;;;;;10.55;2.92;;;;;;;36.05;27.23;100279.28;10299428;28;20073;-57
2023/09/10 16:57:49;;;;;;;9.98;2.50;;;;;;;35.60;27.66;100276.53;10291397;28;20051;-56
2023/09/10 17:02:52;;;;;;;18.92;2.42;;;;;;;35.12;28.18;100281.63;10291222;28;20038;-60
2023/09/10 17:07:53;;;;;;;13.35;2.55;;;;;;;34.73;28.34;100281.00;10296299;28;20523;-56
2023/09/10 17:12:55;;;;;;;15.40;3.00;;;;;;;34.26;29.24;100281.13;10291822;28;20444;-58
2023/09/10 17:17:56;;;;;;;19.30;3.10;;;;;;;33.79;30.49;100279.22;10292190;28;20047;-58
2023/09/10 17:22:58;;;;;;;15.30;3.40;;;;;;;33.36;31.46;100274.56;10295476;28;20070;-59
2023/09/10 17:28:00;;;;;;;15.80;3.47;;;;;;;32.91;32.15;100264.59;10290508;28;20047;-58
2023/09/10 17:33:03;;;;;;;19.85;4.97;;;;;;;32.46;32.86;100266.88;10303799;28;20508;-55
2023/09/10 17:38:06;;;;;;;16.75;4.28;;;;;;;31.92;34.58;100264.25;10309820;28;20104;-57
2023/09/10 17:43:07;;;;;;;21.85;4.30;;;;;;;31.54;35.02;100264.75;10305898;28;20048;-58
2023/09/10 17:48:09;;;;;;;17.33;5.75;;;;;;;31.14;36.02;100267.41;10305443;28;20041;-56
2023/09/10 17:53:10;;;;;;;15.27;3.70;;;;;;;30.80;37.05;100269.59;10306235;28;20046;-55
2023/09/10 17:58:12;;;;;;;9.75;2.88;;;;;;;30.45;37.68;100271.22;10303664;28;20038;-56
2023/09/10 18:03:14;;;;;;;14.35;3.47;;;;;;;30.08;38.70;100281.44;10302124;28;20046;-56
2023/09/10 18:08:16;;;;;;;18.67;4.55;;;;;;;29.73;39.22;100282.94;10304998;28;20492;-56
2023/09/10 18:13:17;;;;;;;20.02;3.92;;;;;;;29.38;40.23;100293.53;10296427;28;20046;-56
2023/09/10 18:18:19;;;;;;;16.63;3.25;;;;;;;29.07;40.79;100294.84;10308106;28;20050;-56
2023/09/10 18:23:21;;;;;;;17.52;3.22;;;;;;;28.80;41.10;100297.47;10304693;28;20058;-57
2023/09/10 18:28:22;;;;;;;22.20;3.40;;;;;;;28.46;41.92;100301.25;10304731;28;20113;-56
2023/09/10 18:33:23;;;;;;;11.07;3.15;;;;;;;28.13;42.48;100303.84;10303200;28;20050;-57
2023/09/10 18:38:25;;;;;;;20.75;3.00;;;;;;;28.01;42.91;100307.03;10308727;28;20117;-58
2023/09/10 18:43:26;;;;;;;15.27;3.55;;;;;;;27.84;43.92;100309.41;10311654;28;20499;-58
2023/09/10 18:48:28;;;;;;;18.95;3.22;;;;;;;27.61;44.49;100316.56;10299879;28;20097;-58
2023/09/10 18:53:30;;;;;;;28.25;4.15;;;;;;;27.44;44.98;100316.97;10305225;28;20051;-59
2023/09/10 18:58:32;;;;;;;15.52;3.95;;;;;;;27.27;45.63;100314.63;10305370;28;20056;-59
2023/09/10 19:03:33;;;;;;;20.40;3.60;;;;;;;27.07;46.23;100313.66;10310893;28;20042;-58
2023/09/10 19:08:35;;;;;;;17.15;3.22;;;;;;;26.88;46.72;100309.94;10313133;28;20056;-59
2023/09/10 19:13:37;;;;;;;14.82;4.00;;;;;;;26.63;47.62;100314.47;10310697;28;20562;-59
2023/09/10 19:18:38;;;;;;;15.98;4.57;;;;;;;26.47;48.09;100318.41;10310276;28;20061;-59
2023/09/10 19:23:40;;;;;;;13.00;2.78;;;;;;;26.10;49.21;100311.38;10289650;28;20046;-59
2023/09/10 19:28:42;;;;;;;17.50;3.80;;;;;;;26.00;49.27;100308.66;10308013;28;20100;-59
2023/09/10 19:33:43;;;;;;;18.13;6.15;;;;;;;25.86;49.62;100308.38;10309695;28;20041;-59
2023/09/10 19:38:44;;;;;;;10.27;3.42;;;;;;;25.70;49.91;100302.91;10306718;28;20058;-58
2023/09/10 19:43:46;;;;;;;16.58;5.72;;;;;;;25.62;50.19;100310.91;10305009;28;20433;-59
2023/09/10 19:48:47;;;;;;;24.45;5.28;;;;;;;25.44;50.21;100318.63;10304387;28;20484;-59
2023/09/10 19:53:49;;;;;;;16.58;5.10;;;;;;;25.27;51.05;100316.16;10304367;28;20042;-59
2023/09/10 19:59:03;;;;;;;16.85;4.45;;;;;;;25.12;51.57;100319.69;10303620;28;20625;-59
2023/09/10 20:04:05;;;;;;;13.88;4.00;;;;;;;24.96;51.95;100319.94;10306371;28;20065;-59
2023/09/10 20:09:07;;;;;;;15.98;3.55;;;;;;;24.88;51.96;100313.03;10305404;28;20046;-59
2023/09/10 20:14:09;;;;;;;20.55;4.30;;;;;;;24.81;52.18;100315.25;10301302;28;20104;-59
2023/09/10 20:19:10;;;;;;;12.93;3.83;;;;;;;24.70;52.03;100312.47;10301806;28;20057;-59
2023/09/10 20:24:12;;;;;;;12.82;3.88;;;;;;;24.57;52.69;100317.66;10306394;28;20044;-58
2023/09/10 20:29:14;;;;;;;16.40;3.88;;;;;;;24.48;52.99;100315.38;10303491;28;20043;-59
2023/09/10 20:34:15;;;;;;;15.68;3.63;;;;;;;24.42;52.83;100312.91;10308977;28;20048;-59
2023/09/10 20:39:17;;;;;;;8.57;3.42;;;;;;;24.30;53.08;100316.69;10303889;28;20403;-59
2023/09/10 20:44:18;;;;;;;10.55;3.53;;;;;;;24.19;53.09;100320.50;10303572;28;20047;-59
2023/09/10 20:49:19;;;;;;;8.52;2.95;;;;;;;24.08;53.77;100313.31;10301028;28;20607;-58
2023/09/10 20:54:21;;;;;;;14.95;3.72;;;;;;;23.99;54.04;100312.97;10305700;28;20046;-59
2023/09/10 20:59:22;;;;;;;16.95;4.43;;;;;;;23.89;54.37;100310.97;10291520;28;20423;-59
2023/09/10 21:04:24;;;;;;;15.38;3.40;;;;;;;23.80;54.74;100311.78;10303543;28;20073;-58
2023/09/10 21:09:26;;;;;;;13.45;4.05;;;;;;;23.64;55.05;100308.91;10303617;28;20728;-59
2023/09/10 21:14:41;;;;;;;13.38;3.33;;;;;;;23.35;55.57;100316.63;10302026;28;20057;-59
2023/09/10 21:19:43;;;;;;;10.70;3.42;;;;;;;23.32;55.77;100312.50;10302586;28;20170;-59
2023/09/10 21:24:45;;;;;;;13.18;3.45;;;;;;;23.20;56.09;100321.97;10302654;28;20047;-59
2023/09/10 21:29:46;;;;;;;11.13;3.45;;;;;;;23.21;55.90;100320.91;10301936;28;20039;-59
2023/09/10 21:34:48;;;;;;;8.90;4.05;;;;;;;23.17;56.08;100317.84;10305364;28;20460;-59
2023/09/10 21:39:50;;;;;;;13.38;3.40;;;;;;;23.13;56.40;100314.78;10303071;28;20046;-59
2023/09/10 21:44:51;;;;;;;9.88;4.07;;;;;;;23.05;56.53;100320.75;10298833;28;20046;-59
2023/09/10 21:49:52;;;;;;;11.80;3.95;;;;;;;22.99;56.71;100320.94;10304829;28;20071;-59
2023/09/10 21:54:54;;;;;;;9.50;3.60;;;;;;;22.89;57.01;100311.53;10299401;28;20061;-59
2023/09/10 21:59:55;;;;;;;14.32;3.80;;;;;;;22.78;57.30;100313.31;10298325;28;20045;-60
2023/09/10 22:04:57;;;;;;;16.58;4.47;;;;;;;22.70;57.44;100311.03;10297651;28;20053;-61
2023/09/10 22:10:00;;;;;;;14.18;3.67;;;;;;;22.66;57.51;100314.56;10296485;28;20069;-60
2023/09/10 22:15:08;;;;;;;20.70;4.07;;;;;;;22.55;58.14;100314.47;10301323;28;20046;-62
2023/09/10 22:20:12;;;;;;;15.45;4.00;;;;;;;22.49;57.91;100307.25;10309600;28;20050;-62
2023/09/10 22:25:16;;;;;;;7.80;4.07;;;;;;;22.34;58.30;100310.63;10306155;28;20046;-62
2023/09/10 22:30:18;;;;;;;11.35;3.70;;;;;;;22.26;58.34;100299.31;10308055;28;20058;-63
2023/09/10 22:35:20;;;;;;;9.57;3.65;;;;;;;22.24;58.25;100304.19;10307967;28;20051;-62
2023/09/10 22:40:21;;;;;;;9.40;4.40;;;;;;;22.17;58.78;100307.91;10285445;28;20046;-63
2023/09/10 22:45:23;;;;;;;11.45;4.25;;;;;;;22.04;58.74;100301.97;10306742;28;20712;-62
2023/09/10 22:50:24;;;;;;;17.52;4.90;;;;;;;22.02;58.91;100298.66;10292930;28;20049;-63
2023/09/10 22:55:26;;;;;;;12.05;3.55;;;;;;;21.95;59.13;100294.22;10301812;28;20054;-63
2023/09/10 23:00:27;;;;;;;11.45;4.18;;;;;;;21.92;59.15;100289.25;10290990;28;20145;-62